Terminal Aerodrome Forecast
Issued by NWS Brownsville, TX

Home | Current Version | Previous Version | Text Only | Print | Product List | Glossary On
Versions: 1 2 3 4 5 6 7 8 9 10 11 12 13 14 15 16 17 18 19 20 21 22 23 24 25 26 27
000
FTUS44 KBRO 191121
TAFHRL
TAF
KHRL 191121Z 1912/2012 17004KT 4SM BR BKN015
     FM191400 16012KT P6SM SCT050
     FM200000 15005KT P6SM SCT035
     FM200600 15003KT 3SM BR OVC015=

USA.gov is the U.S. government's official web portal to all federal, state and local government web resources and services.